Time;durP1;ratioP1;P1;durP2;ratioP2;P2;SDS_P1;SDS_P2;PMS_P1;PMS_P2;Temp;Humidity;BMP_temperature;BMP_pressure;BME280_temperature;BME280_humidity;BME280_pressure;Samples;Min_cycle;Max_cycle;Signal;HPM_P1;HPM_P2
2022/08/21 00:02:15;;;;;;;25.70;21.90;;;;;;;19.09;99.98;97404.52;106046;1282;22560;-87
2022/08/21 00:04:44;;;;;;;23.60;21.20;;;;;;;18.98;99.98;97408.33;106888;1282;22880;-87
2022/08/21 00:07:25;;;;;;;24.10;21.50;;;;;;;18.96;100.00;97405.34;107628;1281;24296;-87
2022/08/21 00:09:54;;;;;;;24.30;21.80;;;;;;;18.95;99.96;97407.33;106299;1284;22627;-87
2022/08/21 00:12:22;;;;;;;26.80;22.50;;;;;;;18.92;100.00;97404.02;105154;1282;25356;-86
2022/08/21 00:14:51;;;;;;;24.50;21.90;;;;;;;18.91;100.00;97397.29;105326;1282;22733;-86
2022/08/21 00:17:25;;;;;;;22.80;20.50;;;;;;;18.93;100.00;97394.99;105058;1282;22571;-87
2022/08/21 00:19:53;;;;;;;24.00;21.50;;;;;;;18.96;100.00;97394.65;105325;1282;24192;-86
2022/08/21 00:22:21;;;;;;;24.20;21.80;;;;;;;18.97;99.96;97394.81;105122;1282;25357;-86
2022/08/21 00:24:49;;;;;;;25.10;22.50;;;;;;;18.93;100.00;97393.83;105274;1282;22565;-86
2022/08/21 00:27:17;;;;;;;25.90;23.40;;;;;;;18.89;100.00;97390.87;105445;1281;25743;-87
2022/08/21 00:29:45;;;;;;;25.40;22.90;;;;;;;18.88;100.00;97389.21;105018;1284;24315;-87
2022/08/21 00:32:20;;;;;;;23.50;21.10;;;;;;;18.93;100.00;97387.97;105377;1282;22573;-87
2022/08/21 00:34:47;;;;;;;25.50;22.40;;;;;;;18.98;100.00;97388.28;105384;1281;24381;-87
2022/08/21 00:37:16;;;;;;;26.00;23.20;;;;;;;18.99;100.00;97385.33;105304;1282;22683;-87
2022/08/21 00:39:45;;;;;;;25.40;22.80;;;;;;;18.99;99.98;97382.30;105381;1282;25610;-86
2022/08/21 00:42:14;;;;;;;25.10;21.10;;;;;;;18.97;99.94;97381.02;105589;1281;25259;-87
2022/08/21 00:44:47;;;;;;;24.60;22.20;;;;;;;19.00;100.00;97376.46;105571;1281;22541;-86
2022/08/21 00:47:15;;;;;;;25.00;22.40;;;;;;;18.99;99.94;97371.45;105317;1282;25484;-88
2022/08/21 00:49:44;;;;;;;29.30;26.50;;;;;;;18.98;100.00;97370.41;105331;1282;22633;-86
2022/08/21 00:52:19;;;;;;;28.00;23.10;;;;;;;18.97;100.00;97372.66;105271;1282;22543;-86
2022/08/21 00:54:49;;;;;;;27.60;24.90;;;;;;;18.94;100.00;97375.59;105470;1281;24597;-86
2022/08/21 00:57:23;;;;;;;24.30;21.10;;;;;;;18.97;100.00;97371.58;105466;1281;25257;-86
2022/08/21 00:59:56;;;;;;;26.70;22.60;;;;;;;19.02;100.00;97366.57;105344;1282;22541;-86
2022/08/21 01:02:25;;;;;;;27.50;24.60;;;;;;;19.05;100.00;97362.96;105127;1284;25559;-85
2022/08/21 01:04:54;;;;;;;26.60;23.90;;;;;;;19.02;99.98;97359.71;105185;1282;22553;-86
2022/08/21 01:07:22;;;;;;;26.30;23.80;;;;;;;19.01;100.00;97355.58;105274;1282;24353;-85
2022/08/21 01:09:54;;;;;;;25.70;23.30;;;;;;;18.92;100.00;97353.79;105300;1282;26473;-85
2022/08/21 01:12:23;;;;;;;28.40;25.10;;;;;;;18.90;100.00;97354.08;105309;1282;23962;-86
2022/08/21 01:14:53;;;;;;;27.00;24.20;;;;;;;19.02;100.00;97356.59;105277;1282;25113;-86
2022/08/21 01:17:22;;;;;;;28.10;25.00;;;;;;;19.03;100.00;97349.98;105346;1281;22563;-85
2022/08/21 01:19:50;;;;;;;25.40;22.10;;;;;;;19.03;100.00;97344.66;105345;1282;25340;-85
2022/08/21 01:22:19;;;;;;;25.90;23.30;;;;;;;19.05;100.00;97345.95;105306;1282;24370;-85
2022/08/21 01:24:47;;;;;;;24.30;21.00;;;;;;;19.11;100.00;97347.98;105314;1281;26722;-87
2022/08/21 01:27:15;;;;;;;22.00;19.40;;;;;;;19.25;100.00;97348.80;105427;1282;26118;-87
2022/08/21 01:30:01;;;;;;;26.00;23.20;;;;;;;19.35;100.00;97338.02;105346;1282;22608;-91
2022/08/21 01:32:33;;;;;;;27.70;23.10;;;;;;;19.38;99.98;97335.02;105359;1282;22556;-88
2022/08/21 01:35:03;;;;;;;27.10;24.20;;;;;;;19.31;99.99;97332.11;105202;1282;25421;-89
2022/08/21 01:37:31;;;;;;;27.00;24.10;;;;;;;19.26;99.93;97323.68;105399;1282;22604;-89
2022/08/21 01:39:59;;;;;;;23.10;19.50;;;;;;;19.27;100.00;97317.85;105455;1281;24388;-89
2022/08/21 01:42:29;;;;;;;22.20;20.00;;;;;;;19.33;100.00;97317.71;105446;1282;24808;-89
2022/08/21 01:44:57;;;;;;;25.90;23.30;;;;;;;19.40;100.00;97313.73;105415;1282;24080;-88
2022/08/21 01:47:26;;;;;;;26.40;23.90;;;;;;;19.45;100.00;97310.98;105432;1282;24325;-90
2022/08/21 01:49:54;;;;;;;25.30;23.00;;;;;;;19.45;100.00;97301.61;105260;1282;24260;-89
2022/08/21 01:52:23;;;;;;;25.40;22.90;;;;;;;19.38;99.87;97294.35;105310;1282;22554;-90
2022/08/21 01:54:51;;;;;;;24.20;20.80;;;;;;;19.37;100.00;97288.41;105299;1282;24099;-89
2022/08/21 01:57:24;;;;;;;24.60;22.00;;;;;;;19.43;100.00;97285.21;105261;1284;25301;-90
2022/08/21 01:59:54;;;;;;;28.90;23.90;;;;;;;19.48;99.99;97281.83;105427;1282;26489;-88
2022/08/21 02:02:22;;;;;;;25.50;23.00;;;;;;;19.46;99.70;97282.36;105431;1282;25237;-89
2022/08/21 02:04:50;;;;;;;28.00;25.20;;;;;;;19.44;99.75;97283.10;105364;1282;24435;-88
2022/08/21 02:07:18;;;;;;;26.40;23.80;;;;;;;19.39;99.50;97284.14;105140;1282;22538;-88
2022/08/21 02:09:46;;;;;;;30.50;27.70;;;;;;;19.35;99.78;97288.30;105457;1282;22563;-89
2022/08/21 02:12:15;;;;;;;32.50;26.40;;;;;;;19.32;99.80;97290.52;105475;1282;25476;-88
2022/08/21 02:15:10;;;;;;;30.70;27.50;;;;;;;19.31;99.87;97289.73;105195;1283;22588;-89
2022/08/21 02:17:47;;;;;;;24.50;22.30;;;;;;;19.28;99.84;97283.07;105366;1282;22737;-89
2022/08/21 02:20:20;;;;;;;27.80;25.10;;;;;;;19.34;100.00;97280.64;105268;1282;24416;-89
2022/08/21 02:22:48;;;;;;;27.60;24.90;;;;;;;19.31;99.68;97276.77;105402;1282;25409;-89
2022/08/21 02:25:17;;;;;;;24.10;21.60;;;;;;;19.28;99.98;97275.73;105438;1282;22617;-89
2022/08/21 02:27:47;;;;;;;24.90;21.90;;;;;;;19.31;100.00;97274.04;105423;1282;24255;-88
2022/08/21 02:30:19;;;;;;;29.10;26.20;;;;;;;19.44;100.00;97274.92;105317;1282;25375;-88
2022/08/21 02:32:47;;;;;;;28.30;25.30;;;;;;;19.46;99.94;97275.48;105389;1282;22547;-88
2022/08/21 02:35:16;;;;;;;26.90;24.20;;;;;;;19.44;99.57;97270.86;105261;1282;22709;-89
2022/08/21 02:37:51;;;;;;;30.00;26.90;;;;;;;19.42;99.84;97265.60;105349;1282;22560;-86
2022/08/21 02:40:23;;;;;;;33.20;26.90;;;;;;;19.40;99.47;97266.89;105314;1282;25316;-87
2022/08/21 02:42:51;;;;;;;25.10;22.70;;;;;;;19.38;99.72;97268.05;105016;1282;24224;-87
2022/08/21 02:45:20;;;;;;;26.30;23.70;;;;;;;19.46;100.00;97268.06;105120;1284;25244;-89
2022/08/21 02:47:54;;;;;;;25.50;22.90;;;;;;;19.49;99.96;97261.23;105281;1282;24296;-87
2022/08/21 02:50:28;;;;;;;29.40;25.70;;;;;;;19.50;99.95;97260.78;105360;1281;22585;-87
2022/08/21 02:52:56;;;;;;;29.40;26.10;;;;;;;19.50;99.89;97259.06;105266;1282;22550;-92
2022/08/21 02:55:28;;;;;;;25.00;22.50;;;;;;;19.57;100.00;97257.80;105276;1283;22529;-93
2022/08/21 02:57:58;;;;;;;26.50;22.00;;;;;;;19.67;100.00;97262.71;105398;1282;24220;-90
2022/08/21 03:00:29;;;;;;;27.00;24.30;;;;;;;19.77;99.98;97265.95;105217;1282;24286;-90
2022/08/21 03:02:58;;;;;;;32.50;29.00;;;;;;;19.81;100.00;97270.20;105285;1282;22544;-90
2022/08/21 03:05:30;;;;;;;30.60;27.30;;;;;;;19.87;99.88;97269.80;105184;1282;22642;-89
2022/08/21 03:08:02;;;;;;;36.70;28.40;;;;;;;19.85;99.44;97272.19;105402;1282;24346;-89
2022/08/21 03:10:30;;;;;;;33.20;29.80;;;;;;;19.86;99.61;97272.91;105468;1282;22709;-90
2022/08/21 03:12:58;;;;;;;26.80;23.40;;;;;;;19.88;99.58;97272.84;105218;1284;25327;-89
2022/08/21 03:15:26;;;;;;;32.30;28.70;;;;;;;19.86;99.24;97277.44;105370;1282;22553;-89
2022/08/21 03:17:54;;;;;;;32.40;27.10;;;;;;;19.84;99.51;97274.21;105290;1282;24299;-90
2022/08/21 03:20:26;;;;;;;25.70;22.80;;;;;;;19.93;100.00;97277.97;105366;1282;22553;-90
2022/08/21 03:22:55;;;;;;;34.20;28.60;;;;;;;20.02;99.92;97275.40;105421;1282;25444;-91
2022/08/21 03:25:24;;;;;;;32.80;29.10;;;;;;;20.06;99.53;97276.70;105490;1282;24268;-90
2022/08/21 03:28:11;;;;;;;34.40;28.60;;;;;;;20.07;99.10;97280.84;105232;1282;24711;-90
2022/08/21 03:30:41;;;;;;;28.80;25.60;;;;;;;20.01;98.82;97284.86;105372;1282;24264;-90
2022/08/21 03:33:11;;;;;;;29.30;26.40;;;;;;;20.01;99.21;97289.79;105409;1282;22771;-89
2022/08/21 03:36:45;;;;;;;30.40;27.30;;;;;;;19.96;98.67;97291.75;105430;1281;25369;-90
2022/08/21 03:40:13;;;;;;;29.80;26.60;;;;;;;19.72;98.45;97305.73;105398;1282;22545;-88
2022/08/21 03:43:22;;;;;;;27.40;24.60;;;;;;;19.54;98.68;97307.98;105425;1282;24435;-84
2022/08/21 03:45:50;;;;;;;28.00;25.20;;;;;;;19.49;99.33;97309.94;105350;1282;26593;-84
2022/08/21 03:48:19;;;;;;;26.30;23.50;;;;;;;19.49;99.44;97311.20;105315;1282;25332;-86
2022/08/21 03:50:49;;;;;;;24.20;21.20;;;;;;;19.54;99.59;97313.20;105318;1282;22566;-86
2022/08/21 03:53:17;;;;;;;26.90;24.30;;;;;;;19.62;99.92;97317.73;105391;1282;22574;-88
2022/08/21 03:55:47;;;;;;;30.20;27.10;;;;;;;19.64;99.17;97316.08;105306;1282;25578;-86
2022/08/21 03:58:18;;;;;;;26.00;23.20;;;;;;;19.57;98.91;97313.88;105343;1282;22573;-87
2022/08/21 04:00:50;;;;;;;30.40;27.10;;;;;;;19.55;99.23;97314.61;105216;1282;23605;-87
2022/08/21 04:03:19;;;;;;;28.90;26.10;;;;;;;19.55;99.39;97315.01;105360;1282;22863;-86
2022/08/21 04:05:48;;;;;;;29.30;25.00;;;;;;;19.53;99.41;97310.99;105201;1282;24254;-86
2022/08/21 04:08:18;;;;;;;29.00;26.10;;;;;;;19.54;99.69;97312.98;105309;1282;22768;-86
2022/08/21 04:10:49;;;;;;;24.00;21.60;;;;;;;19.50;99.50;97310.52;105301;1282;25468;-86
2022/08/21 04:13:18;;;;;;;29.10;26.20;;;;;;;19.53;99.88;97310.06;105393;1282;22562;-86
2022/08/21 04:15:46;;;;;;;28.40;25.60;;;;;;;19.61;99.93;97306.98;105151;1285;22531;-86
2022/08/21 04:18:15;;;;;;;28.90;26.10;;;;;;;19.67;99.88;97311.13;104987;1282;22736;-86
2022/08/21 04:20:45;;;;;;;31.40;27.30;;;;;;;19.74;99.80;97311.84;105260;1282;22878;-87
2022/08/21 04:23:19;;;;;;;32.60;27.90;;;;;;;19.76;99.46;97312.40;105339;1282;25330;-86
2022/08/21 04:25:53;;;;;;;33.80;28.70;;;;;;;19.78;99.55;97314.52;105310;1282;24369;-87
2022/08/21 04:28:23;;;;;;;29.90;25.00;;;;;;;19.82;99.67;97314.10;105309;1282;24254;-86
2022/08/21 04:30:57;;;;;;;29.20;26.20;;;;;;;19.87;99.61;97317.59;105128;1283;22550;-88
2022/08/21 04:33:25;;;;;;;33.00;28.50;;;;;;;19.94;99.70;97314.55;105367;1282;25313;-88
2022/08/21 04:35:54;;;;;;;29.10;26.00;;;;;;;19.90;99.02;97318.58;105378;1282;22582;-89
2022/08/21 04:38:22;;;;;;;33.70;28.80;;;;;;;19.91;99.57;97319.81;105413;1282;25405;-89
2022/08/21 04:40:51;;;;;;;33.70;29.70;;;;;;;19.94;99.76;97318.30;105379;1282;25256;-89
2022/08/21 04:43:22;;;;;;;32.40;27.50;;;;;;;19.93;99.17;97320.64;105447;1282;24233;-88
2022/08/21 04:45:52;;;;;;;37.70;32.40;;;;;;;19.91;99.25;97325.45;105141;1283;22546;-87
2022/08/21 04:48:22;;;;;;;34.10;30.40;;;;;;;19.91;99.24;97327.10;105382;1282;24299;-89
2022/08/21 04:51:14;;;;;;;39.60;31.80;;;;;;;19.91;99.27;97327.95;105190;1285;22701;-88
2022/08/21 04:53:56;;;;;;;34.40;29.60;;;;;;;20.01;99.88;97316.41;104605;1289;25428;-88
2022/08/21 04:56:30;;;;;;;44.60;32.00;;;;;;;20.14;99.72;97322.96;104455;1290;24330;-89
2022/08/21 04:59:04;;;;;;;34.10;29.30;;;;;;;20.19;99.48;97319.10;104608;1290;24294;-87
2022/08/21 05:01:35;;;;;;;35.30;29.30;;;;;;;20.27;99.55;97321.59;104508;1291;22686;-87
2022/08/21 05:04:08;;;;;;;39.60;30.50;;;;;;;20.36;99.53;97322.92;104554;1290;22726;-89
2022/08/21 05:06:39;;;;;;;36.70;28.70;;;;;;;20.49;99.91;97321.09;104527;1290;22588;-87
2022/08/21 05:09:09;;;;;;;38.10;29.40;;;;;;;20.58;99.21;97322.77;104614;1290;22551;-87
2022/08/21 05:11:40;;;;;;;36.20;32.30;;;;;;;20.62;99.24;97323.11;104571;1290;22543;-87
2022/08/21 05:14:09;;;;;;;39.00;31.80;;;;;;;20.63;98.80;97321.87;104445;1291;22563;-88
2022/08/21 05:17:06;;;;;;;32.00;28.30;;;;;;;20.67;99.18;97319.17;104574;1291;22671;-87
2022/08/21 05:19:34;;;;;;;36.60;30.60;;;;;;;20.73;98.93;97327.81;104509;1288;22581;-86
2022/08/21 05:22:02;;;;;;;35.60;29.10;;;;;;;20.77;98.70;97330.81;104534;1290;22793;-89
2022/08/21 05:24:31;;;;;;;36.20;26.60;;;;;;;20.72;98.11;97329.59;104562;1291;25319;-90
2022/08/21 05:27:53;;;;;;;35.00;27.30;;;;;;;20.61;97.95;97330.14;104541;1291;22723;-89
2022/08/21 05:30:21;;;;;;;36.40;30.40;;;;;;;20.50;98.11;97325.71;104547;1287;24430;-89
2022/08/21 05:32:49;;;;;;;34.20;30.00;;;;;;;20.50;98.28;97326.50;105181;1284;22554;-90
2022/08/21 05:35:17;;;;;;;30.80;27.30;;;;;;;20.56;98.55;97327.13;105174;1284;22938;-90
2022/08/21 05:37:45;;;;;;;33.70;27.30;;;;;;;20.64;98.38;97332.13;105164;1284;22604;-90
2022/08/21 05:40:14;;;;;;;33.40;27.00;;;;;;;20.68;98.07;97332.78;105139;1284;22773;-89
2022/08/21 05:42:51;;;;;;;30.50;26.40;;;;;;;20.70;98.13;97335.14;105231;1285;22700;-90
2022/08/21 05:45:24;;;;;;;33.80;27.70;;;;;;;20.71;97.56;97334.29;105172;1284;22534;-87
2022/08/21 05:48:15;;;;;;;32.20;27.70;;;;;;;20.65;97.32;97337.69;105205;1284;22560;-87
2022/08/21 05:50:44;;;;;;;35.30;29.50;;;;;;;20.58;97.38;97335.98;105023;1284;23990;-89
2022/08/21 05:53:16;;;;;;;36.70;31.40;;;;;;;20.52;97.07;97329.03;105146;1284;22557;-89
2022/08/21 05:55:44;;;;;;;36.10;30.00;;;;;;;20.42;97.39;97325.34;105369;1280;22541;-89
2022/08/21 05:58:16;;;;;;;31.50;27.80;;;;;;;20.41;97.36;97328.67;105326;1282;23621;-90
2022/08/21 06:00:47;;;;;;;34.40;28.30;;;;;;;20.45;97.48;97330.98;105475;1282;22566;-90
2022/08/21 06:03:36;;;;;;;36.10;28.00;;;;;;;20.55;97.72;97336.41;105378;1282;22535;-89
2022/08/21 06:06:05;;;;;;;32.30;27.30;;;;;;;20.71;97.47;97342.50;105131;1284;25362;-87
2022/08/21 06:08:33;;;;;;;35.20;26.80;;;;;;;20.84;97.53;97339.63;105234;1282;24220;-88
2022/08/21 06:11:04;;;;;;;36.30;27.40;;;;;;;20.96;97.23;97343.00;105660;1282;25465;-88
2022/08/21 06:13:33;;;;;;;30.90;27.60;;;;;;;21.01;96.74;97341.31;105500;1282;24422;-87
2022/08/21 06:16:12;;;;;;;34.90;26.90;;;;;;;21.02;96.73;97335.76;105449;1282;25238;-92
2022/08/21 06:23:29;;;;;;;24.90;22.10;;;;;;;21.14;96.82;97330.45;105298;1282;22560;-90
2022/08/21 06:26:17;;;;;;;25.50;22.90;;;;;;;21.21;95.13;97333.07;105361;1282;22567;-91
2022/08/21 06:29:37;;;;;;;26.90;23.70;;;;;;;21.11;94.34;97332.86;105250;1283;25714;-90
2022/08/21 06:32:12;;;;;;;;;;;;;;;21.10;94.57;97334.48;105369;1282;24307;-91
2022/08/21 06:34:43;;;;;;;26.80;24.00;;;;;;;21.12;95.19;97335.36;105342;1283;22543;-90
2022/08/21 06:38:03;;;;;;;25.10;22.50;;;;;;;21.21;94.44;97339.17;105275;1283;24113;-92
2022/08/21 06:40:31;;;;;;;29.50;25.20;;;;;;;21.33;94.72;97343.46;105272;1282;24243;-88
2022/08/21 06:43:09;;;;;;;25.00;21.20;;;;;;;21.48;95.24;97344.83;105133;1283;22587;-88
2022/08/21 06:45:42;;;;;;;28.10;25.10;;;;;;;21.62;94.64;97345.91;105341;1282;22584;-87
2022/08/21 06:48:11;;;;;;;28.30;25.00;;;;;;;21.64;93.83;97348.89;105110;1282;25257;-88
2022/08/21 06:50:46;;;;;;;27.30;24.40;;;;;;;21.59;93.12;97350.44;105267;1282;24262;-87
2022/08/21 06:53:18;;;;;;;28.70;24.60;;;;;;;21.55;92.77;97353.64;105315;1282;25434;-87
2022/08/21 06:55:48;;;;;;;28.20;25.10;;;;;;;21.49;92.59;97357.98;105263;1282;24236;-87
2022/08/21 06:58:17;;;;;;;33.20;26.00;;;;;;;21.40;92.72;97360.77;105157;1282;24297;-87
2022/08/21 07:00:48;;;;;;;28.90;26.00;;;;;;;21.32;92.90;97363.98;105200;1282;22547;-86
2022/08/21 07:03:25;;;;;;;30.00;26.60;;;;;;;21.28;93.38;97367.48;105202;1282;22644;-87
2022/08/21 07:05:54;;;;;;;32.20;26.00;;;;;;;21.28;92.99;97365.98;105378;1283;22590;-91
2022/08/21 07:08:22;;;;;;;27.20;24.20;;;;;;;21.24;92.61;97367.52;105520;1282;25409;-91
2022/08/21 07:10:52;;;;;;;25.50;22.70;;;;;;;21.26;93.06;97369.50;105437;1284;22637;-89
2022/08/21 07:13:20;;;;;;;28.90;24.40;;;;;;;21.28;92.86;97368.09;105137;1283;22708;-90
2022/08/21 07:15:48;;;;;;;24.20;20.90;;;;;;;21.26;92.81;97369.19;105240;1282;22502;-89
2022/08/21 07:18:16;;;;;;;28.10;24.40;;;;;;;21.26;92.35;97363.48;105532;1282;22558;-88
2022/08/21 07:20:46;;;;;;;27.60;24.80;;;;;;;21.18;92.36;97363.18;105579;1282;22582;-88
2022/08/21 07:23:37;;;;;;;33.90;26.40;;;;;;;21.13;92.44;97362.29;105519;1283;22612;-91
2022/08/21 07:26:32;;;;;;;32.10;28.90;;;;;;;21.02;92.64;97362.14;105716;1284;24129;-89
2022/08/21 07:29:00;;;;;;;38.00;34.30;;;;;;;21.00;92.67;97364.86;105312;1282;22889;-89
2022/08/21 07:31:48;;;;;;;31.70;28.30;;;;;;;21.01;92.71;97363.07;105893;1282;22553;-90
2022/08/21 07:34:17;;;;;;;34.00;30.20;;;;;;;20.91;92.67;97364.80;105709;1282;24206;-92
2022/08/21 07:36:49;;;;;;;35.60;31.80;;;;;;;20.84;93.34;97368.50;106191;1281;22573;-93
2022/08/21 07:39:17;;;;;;;34.30;31.10;;;;;;;20.76;93.70;97375.88;106730;1282;23650;-91
2022/08/21 07:41:45;;;;;;;35.90;32.00;;;;;;;20.71;94.11;97371.98;105475;1282;26497;-90
2022/08/21 07:44:13;;;;;;;37.50;33.50;;;;;;;20.67;94.61;97371.88;105769;1282;25384;-91
2022/08/21 07:46:41;;;;;;;35.60;32.00;;;;;;;20.57;95.23;97377.96;105480;1282;26608;-91
2022/08/21 07:49:09;;;;;;;44.20;32.50;;;;;;;20.48;95.62;97375.42;105419;1283;25368;-92
2022/08/21 07:51:37;;;;;;;37.50;33.60;;;;;;;20.45;95.95;97374.53;105403;1282;22538;-91
2022/08/21 07:54:05;;;;;;;43.60;35.20;;;;;;;20.48;96.16;97368.15;105725;1282;24417;-93
2022/08/21 07:56:34;;;;;;;36.50;32.00;;;;;;;20.52;96.06;97367.10;105539;1282;22556;-90
2022/08/21 07:59:02;;;;;;;41.40;36.70;;;;;;;20.58;96.32;97366.31;105646;1282;23885;-93
2022/08/21 08:01:30;;;;;;;38.80;33.90;;;;;;;20.64;96.21;97368.17;106129;1282;22565;-87
2022/08/21 08:03:59;;;;;;;45.90;34.80;;;;;;;20.70;96.32;97366.27;106397;1282;25241;-89
2022/08/21 08:06:27;;;;;;;40.70;34.50;;;;;;;20.73;96.28;97360.44;108245;1267;22517;-87
2022/08/21 08:08:55;;;;;;;38.80;34.50;;;;;;;20.81;96.22;97367.55;106197;1280;22552;-93
2022/08/21 08:11:23;;;;;;;35.30;31.90;;;;;;;20.86;96.12;97363.81;106190;1279;24273;-91
2022/08/21 08:13:52;;;;;;;37.60;33.70;;;;;;;20.98;95.92;97360.16;105651;1280;22563;-90
2022/08/21 08:16:20;;;;;;;39.50;34.40;;;;;;;21.15;95.60;97356.36;106160;1280;22567;-90
2022/08/21 08:18:48;;;;;;;34.30;31.00;;;;;;;21.29;95.17;97359.02;106363;1281;22496;-92
2022/08/21 08:21:18;;;;;;;30.90;27.60;;;;;;;21.44;95.08;97358.27;107426;1281;22842;-92
2022/08/21 08:23:47;;;;;;;25.00;21.30;;;;;;;21.47;93.52;97363.38;107285;1280;22529;-92
2022/08/21 08:26:18;;;;;;;18.60;15.80;;;;;;;21.28;92.44;97368.65;108238;1281;24108;-91
2022/08/21 08:28:47;;;;;;;15.70;13.50;;;;;;;20.99;91.79;97373.39;106749;1280;25283;-88
2022/08/21 08:31:15;;;;;;;15.70;12.40;;;;;;;20.72;92.04;97372.00;105807;1281;25390;-86
2022/08/21 08:33:43;;;;;;;17.40;13.20;;;;;;;20.50;92.34;97370.92;105750;1281;25244;-90
2022/08/21 08:36:18;;;;;;;14.70;12.50;;;;;;;20.34;93.03;97367.00;105962;1278;22549;-91
2022/08/21 08:38:47;;;;;;;15.50;11.50;;;;;;;20.28;93.34;97368.04;106774;1277;22540;-92
2022/08/21 08:41:21;;;;;;;14.40;10.70;;;;;;;20.24;93.38;97373.24;106461;1280;22540;-87
2022/08/21 08:43:53;;;;;;;13.30;10.70;;;;;;;20.13;93.41;97369.14;106008;1280;22628;-88
2022/08/21 08:46:42;;;;;;;14.10;10.00;;;;;;;20.11;93.51;97369.58;105754;1281;22560;-88
2022/08/21 08:49:20;;;;;;;11.90;9.60;;;;;;;20.13;93.62;97370.09;105759;1280;25318;-85
2022/08/21 08:52:20;;;;;;;15.40;9.80;;;;;;;20.15;93.49;97366.73;105807;1280;25244;-88
2022/08/21 08:55:06;;;;;;;11.10;8.50;;;;;;;20.12;93.50;97365.78;105952;1280;25320;-87
2022/08/21 08:57:36;;;;;;;11.10;8.40;;;;;;;20.14;93.63;97360.80;105820;1280;22562;-89
2022/08/21 09:00:10;;;;;;;16.00;8.10;;;;;;;20.16;93.57;97361.05;105895;1280;24275;-88
2022/08/21 09:02:39;;;;;;;13.30;9.80;;;;;;;20.26;93.84;97353.94;105903;1280;22718;-89
2022/08/21 09:05:18;;;;;;;14.80;9.60;;;;;;;20.34;93.21;97355.83;106118;1279;22700;-87
2022/08/21 09:07:59;;;;;;;21.00;12.00;;;;;;;20.38;93.24;97356.65;106716;1280;22544;-94
2022/08/21 09:10:41;;;;;;;18.50;11.90;;;;;;;20.49;93.00;97357.22;107641;1280;25231;-92
2022/08/21 09:13:23;;;;;;;16.20;11.60;;;;;;;20.54;93.20;97353.38;106297;1280;25473;-85
2022/08/21 09:16:37;;;;;;;18.30;12.90;;;;;;;20.68;93.21;97363.20;105830;1280;25236;-86
2022/08/21 09:19:18;;;;;;;19.20;11.50;;;;;;;20.74;91.85;97359.58;105157;1287;23429;-85
2022/08/21 09:22:30;;;;;;;18.40;11.30;;;;;;;20.78;91.57;97360.63;105155;1287;24272;-90
2022/08/21 09:25:22;;;;;;;16.90;11.40;;;;;;;20.84;90.97;97365.21;105209;1287;25216;-85
2022/08/21 09:27:51;;;;;;;21.80;13.50;;;;;;;20.93;90.54;97362.92;105220;1287;25349;-85
2022/08/21 09:30:26;;;;;;;16.60;12.20;;;;;;;21.00;90.52;97363.92;105104;1287;24751;-88
2022/08/21 09:32:54;;;;;;;23.50;14.60;;;;;;;21.15;89.59;97364.41;105091;1287;22625;-88
2022/08/21 09:35:24;;;;;;;17.90;13.20;;;;;;;21.23;89.41;97360.71;105087;1287;22572;-84
2022/08/21 09:38:06;;;;;;;22.00;15.00;;;;;;;21.32;88.82;97358.34;105173;1287;25367;-90
2022/08/21 09:40:40;;;;;;;16.80;15.00;;;;;;;21.35;88.28;97353.67;105106;1287;25642;-90
2022/08/21 09:43:09;;;;;;;18.60;15.20;;;;;;;21.36;88.22;97352.74;105089;1287;25466;-89
2022/08/21 09:45:39;;;;;;;20.00;15.10;;;;;;;21.40;88.24;97355.44;105137;1287;24313;-87
2022/08/21 09:48:19;;;;;;;18.90;14.60;;;;;;;21.47;88.42;97357.36;105124;1287;24020;-87
2022/08/21 09:50:49;;;;;;;25.10;16.70;;;;;;;21.51;87.98;97360.52;105045;1287;24235;-87
2022/08/21 09:53:24;;;;;;;19.30;16.30;;;;;;;21.51;87.97;97359.11;103909;1287;1419875;-89
2022/08/21 09:58:52;;;;;;;17.70;14.60;;;;;;;21.53;87.86;97357.14;105774;1279;22570;-86
2022/08/21 10:01:23;;;;;;;19.20;14.20;;;;;;;21.57;87.88;97356.70;105839;1280;24392;-86
2022/08/21 10:04:07;;;;;;;16.70;14.00;;;;;;;21.62;88.03;97357.35;105838;1281;23050;-84
2022/08/21 10:06:35;;;;;;;20.00;14.00;;;;;;;21.64;87.95;97356.34;105747;1280;25539;-84
2022/08/21 10:09:07;;;;;;;18.60;12.60;;;;;;;21.63;87.11;97359.07;106033;1280;22556;-86
2022/08/21 10:11:49;;;;;;;17.00;11.10;;;;;;;21.53;87.12;97356.92;105746;1280;22566;-86
2022/08/21 10:14:26;;;;;;;23.20;11.20;;;;;;;21.47;87.33;97360.33;106009;1280;25325;-85
2022/08/21 10:17:18;;;;;;;13.00;9.10;;;;;;;21.41;87.42;97361.93;105978;1280;24290;-84
2022/08/21 10:19:51;;;;;;;14.00;7.20;;;;;;;21.30;86.98;97364.05;105822;1280;22653;-85
2022/08/21 10:22:34;;;;;;;;;;;;;;;21.21;87.25;97367.44;105974;1280;22518;-85
2022/08/21 10:25:19;;;;;;;10.00;5.90;;;;;;;21.13;87.36;97372.77;105900;1280;22777;-84
2022/08/21 10:27:56;;;;;;;9.30;6.00;;;;;;;21.07;87.25;97373.14;105844;1280;25440;-85
2022/08/21 10:30:57;;;;;;;9.20;5.10;;;;;;;21.01;86.83;97372.08;105836;1280;25193;-85
2022/08/21 10:33:36;;;;;;;5.60;3.90;;;;;;;20.96;87.21;97374.92;105608;1280;22538;-84
2022/08/21 10:36:16;;;;;;;6.30;3.70;;;;;;;20.95;87.27;97368.43;105680;1281;22580;-87
2022/08/21 10:38:49;;;;;;;3.80;2.70;;;;;;;20.98;87.04;97376.91;105806;1280;25250;-85
2022/08/21 10:41:47;;;;;;;5.50;3.60;;;;;;;20.98;86.93;97373.86;106022;1280;26521;-88
2022/08/21 10:44:33;;;;;;;4.10;2.60;;;;;;;20.98;86.76;97374.64;105944;1280;23105;-86
2022/08/21 10:47:08;;;;;;;3.10;2.40;;;;;;;21.02;86.59;97374.34;105996;1280;22544;-85
2022/08/21 10:49:54;;;;;;;;;;;;;;;21.04;86.35;97375.61;105721;1280;22521;-87
2022/08/21 10:52:56;;;;;;;4.60;2.60;;;;;;;21.03;86.54;97374.98;106033;1280;24333;-84
2022/08/21 10:55:43;;;;;;;4.50;3.00;;;;;;;21.05;85.54;97381.09;106314;1280;24542;-85
2022/08/21 10:58:19;;;;;;;3.70;2.50;;;;;;;21.02;85.38;97380.45;106440;1280;22552;-88
2022/08/21 11:00:53;;;;;;;5.70;2.50;;;;;;;21.03;85.37;97381.23;106120;1280;25461;-87
2022/08/21 11:03:31;;;;;;;7.00;2.50;;;;;;;21.03;84.82;97384.69;105967;1280;24251;-84
2022/08/21 11:06:20;;;;;;;3.10;1.70;;;;;;;21.03;84.09;97381.55;106594;1279;23560;-86
2022/08/21 11:08:59;;;;;;;4.00;1.90;;;;;;;21.02;83.50;97375.13;105873;1281;22549;-85
2022/08/21 11:11:34;;;;;;;1.70;1.60;;;;;;;21.04;83.31;97374.66;105655;1281;22543;-87
2022/08/21 11:14:13;;;;;;;3.50;2.10;;;;;;;21.13;83.60;97373.80;105749;1281;22568;-85
2022/08/21 11:16:53;;;;;;;2.60;1.80;;;;;;;21.24;83.22;97374.65;105687;1281;22545;-84
2022/08/21 11:19:37;;;;;;;3.00;1.60;;;;;;;21.29;81.96;97376.02;105841;1281;24223;-86
2022/08/21 11:22:22;;;;;;;3.80;2.20;;;;;;;21.30;82.02;97372.98;106062;1281;22687;-85
2022/08/21 11:25:10;;;;;;;3.50;2.20;;;;;;;21.31;81.27;97369.21;105828;1281;22569;-86
2022/08/21 11:27:42;;;;;;;3.70;1.90;;;;;;;21.37;81.62;97365.90;105914;1281;25522;-86
2022/08/21 11:30:10;;;;;;;3.70;1.70;;;;;;;21.39;80.47;97361.55;105991;1281;22550;-88
2022/08/21 11:33:19;;;;;;;3.30;1.70;;;;;;;21.45;80.44;97363.92;105651;1280;22645;-85
2022/08/21 11:36:18;;;;;;;5.00;2.20;;;;;;;21.57;80.64;97360.46;106101;1280;22718;-88
2022/08/21 11:39:01;;;;;;;4.30;2.30;;;;;;;21.74;79.27;97355.59;105827;1280;23537;-87
2022/08/21 11:41:51;;;;;;;4.00;2.00;;;;;;;21.88;78.03;97358.02;105809;1280;23197;-87
2022/08/21 11:45:06;;;;;;;4.10;2.20;;;;;;;22.03;77.53;97348.10;106303;1280;22653;-85
2022/08/21 11:47:52;;;;;;;4.60;2.10;;;;;;;22.25;76.96;97356.41;107549;1281;22564;-88
2022/08/21 11:50:26;;;;;;;4.60;2.30;;;;;;;22.36;75.53;97351.89;107030;1280;23446;-87
2022/08/21 11:53:17;;;;;;;3.90;2.00;;;;;;;22.45;75.16;97355.13;106712;1281;24103;-89
2022/08/21 11:55:58;;;;;;;2.30;1.50;;;;;;;22.50;75.44;97354.97;106397;1281;22611;-84